Time;durP1;ratioP1;P1;durP2;ratioP2;P2;SDS_P1;SDS_P2;PMS_P1;PMS_P2;Temp;Humidity;BMP_temperature;BMP_pressure;BME280_temperature;BME280_humidity;BME280_pressure;Samples;Min_cycle;Max_cycle;Signal;HPM_P1;HPM_P2
2021/06/24 00:01:06;;;;;;;0.00;0.00;;;;;;;25.15;67.66;100539.94;5084888;28;20131;-74
2021/06/24 00:03:36;;;;;;;0.00;0.00;;;;;;;25.15;67.52;100539.06;5072874;28;20464;-75
2021/06/24 00:06:04;;;;;;;0.10;0.00;;;;;;;25.12;67.94;100537.44;5076637;28;20411;-76
2021/06/24 00:08:29;;;;;;;0.00;0.00;;;;;;;25.13;67.34;100544.63;5095288;28;20069;-77
2021/06/24 00:10:58;;;;;;;0.00;0.00;;;;;;;25.11;67.78;100554.69;5067641;28;20035;-76
2021/06/24 00:13:24;;;;;;;0.00;0.00;;;;;;;25.10;68.19;100542.09;5070688;28;20055;-76
2021/06/24 00:15:53;;;;;;;0.03;0.00;;;;;;;25.10;68.25;100547.53;5084241;28;20049;-76
2021/06/24 00:18:19;;;;;;;0.00;0.00;;;;;;;25.08;67.99;100545.91;5070926;28;20044;-77
2021/06/24 00:20:47;;;;;;;0.05;0.00;;;;;;;25.12;68.10;100544.72;5080376;28;20131;-78
2021/06/24 00:23:13;;;;;;;0.10;0.00;;;;;;;25.03;67.36;100535.34;5066855;28;20040;-77
2021/06/24 00:25:39;;;;;;;0.00;0.00;;;;;;;25.08;67.49;100538.59;5084476;28;20055;-75
2021/06/24 00:28:07;;;;;;;0.10;0.00;;;;;;;25.07;67.48;100542.31;5066781;28;20040;-76
2021/06/24 00:30:37;;;;;;;0.00;0.00;;;;;;;25.07;67.74;100544.13;5100410;28;20043;-77
2021/06/24 00:33:03;;;;;;;0.00;0.00;;;;;;;25.07;67.55;100546.84;5106183;28;20050;-74
2021/06/24 00:35:29;;;;;;;0.00;0.00;;;;;;;25.06;67.65;100542.41;5068286;28;20495;-74
2021/06/24 00:37:55;;;;;;;0.00;0.00;;;;;;;25.06;67.79;100546.00;5088790;28;20040;-78
2021/06/24 00:40:22;;;;;;;0.00;0.00;;;;;;;25.06;67.97;100546.00;5065627;28;20149;-76
2021/06/24 00:42:48;;;;;;;0.00;0.00;;;;;;;25.08;67.44;100549.47;5098659;28;20558;-76
2021/06/24 00:45:14;;;;;;;0.10;0.00;;;;;;;25.05;67.99;100552.41;5069665;28;20076;-75
2021/06/24 00:47:44;;;;;;;0.17;0.10;;;;;;;25.03;68.07;100545.31;5093499;28;20048;-74
2021/06/24 00:50:12;;;;;;;0.10;0.00;;;;;;;24.97;68.41;100535.72;5083766;28;20040;-74
2021/06/24 00:52:40;;;;;;;0.00;0.00;;;;;;;25.06;68.12;100556.84;5072883;28;20055;-75
2021/06/24 00:55:16;;;;;;;0.10;0.00;;;;;;;25.03;68.07;100539.88;5083817;28;20036;-75
2021/06/24 00:57:45;;;;;;;0.03;0.00;;;;;;;25.03;68.19;100561.59;5082259;28;20115;-76
2021/06/24 01:00:12;;;;;;;0.00;0.00;;;;;;;24.95;68.46;100555.81;5106526;28;20512;-74
2021/06/24 01:02:38;;;;;;;0.00;0.00;;;;;;;24.97;68.45;100570.16;5091050;28;20047;-76
2021/06/24 01:05:06;;;;;;;0.00;0.00;;;;;;;24.92;68.51;100565.03;5067988;28;20043;-75
2021/06/24 01:07:32;;;;;;;0.10;0.00;;;;;;;24.94;67.96;100565.81;5075505;28;20043;-75
2021/06/24 01:10:19;;;;;;;0.13;0.00;;;;;;;24.88;67.95;100560.78;5089511;28;20097;-74
2021/06/24 01:12:45;;;;;;;0.10;0.00;;;;;;;24.89;68.42;100572.50;5082951;28;20531;-74
2021/06/24 01:15:11;;;;;;;0.98;0.10;;;;;;;24.86;68.70;100578.13;5067691;28;20055;-77
2021/06/24 01:17:38;;;;;;;0.00;0.00;;;;;;;24.76;69.07;100566.16;5074203;28;20040;-75
2021/06/24 01:20:05;;;;;;;0.10;0.10;;;;;;;24.81;69.17;100578.41;5096512;28;20054;-75
2021/06/24 01:22:35;;;;;;;0.10;0.00;;;;;;;24.83;69.93;100591.91;5071649;28;20043;-75
2021/06/24 01:25:02;;;;;;;0.00;0.00;;;;;;;24.77;70.47;100582.31;5103137;28;20047;-74
2021/06/24 01:27:28;;;;;;;0.00;0.00;;;;;;;24.84;71.38;100578.22;5075454;28;20028;-78
2021/06/24 01:29:54;;;;;;;0.00;0.00;;;;;;;24.79;71.81;100572.25;5082507;28;20036;-74
2021/06/24 01:32:21;;;;;;;0.10;0.10;;;;;;;24.82;71.66;100571.16;5070091;28;20419;-74
2021/06/24 01:34:47;;;;;;;0.00;0.00;;;;;;;24.85;72.48;100571.81;5078114;28;20101;-75
2021/06/24 01:37:13;;;;;;;0.10;0.00;;;;;;;24.85;72.68;100585.38;5089880;28;20119;-75
2021/06/24 01:39:39;;;;;;;0.00;0.00;;;;;;;24.82;72.55;100572.06;5056866;28;20490;-74
2021/06/24 01:42:06;;;;;;;0.10;0.00;;;;;;;24.90;72.32;100577.84;5075427;28;20165;-78
2021/06/24 01:44:37;;;;;;;0.30;0.00;;;;;;;24.93;71.78;100580.34;5085242;28;20082;-75
2021/06/24 01:47:07;;;;;;;0.10;0.10;;;;;;;24.83;69.45;100579.22;5066290;28;20044;-76
2021/06/24 01:49:33;;;;;;;0.10;0.00;;;;;;;24.72;71.61;100584.47;5081397;28;20100;-78
2021/06/24 01:52:00;;;;;;;0.00;0.00;;;;;;;24.55;72.11;100572.91;5093655;28;20050;-87
2021/06/24 01:54:26;;;;;;;0.10;0.10;;;;;;;24.56;72.34;100575.53;5052515;28;20144;-84
2021/06/24 01:56:52;;;;;;;0.10;0.00;;;;;;;24.63;72.06;100581.47;5081607;28;20501;-82
2021/06/24 01:59:18;;;;;;;0.10;0.00;;;;;;;24.67;71.70;100583.00;5089674;28;20094;-76
2021/06/24 02:02:03;;;;;;;0.10;0.00;;;;;;;24.55;70.62;100565.66;5052224;28;20062;-84
2021/06/24 02:04:47;;;;;;;0.00;0.00;;;;;;;24.60;70.06;100581.66;5102250;28;20322;-84
2021/06/24 02:07:24;;;;;;;0.10;0.00;;;;;;;24.32;69.67;100573.50;5069412;28;20129;-83
2021/06/24 02:10:13;;;;;;;0.00;0.00;;;;;;;24.19;70.20;100572.56;5084556;28;20051;-83
2021/06/24 02:12:48;;;;;;;0.10;0.00;;;;;;;24.21;70.17;100573.34;5070562;28;20423;-82
2021/06/24 02:15:15;;;;;;;0.15;0.08;;;;;;;24.22;70.07;100561.53;5099366;28;20491;-81
2021/06/24 02:17:48;;;;;;;0.00;0.00;;;;;;;24.41;68.83;100571.09;5105503;28;20407;-73
2021/06/24 02:20:16;;;;;;;0.00;0.00;;;;;;;24.38;68.55;100565.00;5084219;28;20043;-79
2021/06/24 02:23:00;;;;;;;0.00;0.00;;;;;;;24.29;68.24;100562.88;5084800;28;20118;-80
2021/06/24 02:25:32;;;;;;;0.03;0.00;;;;;;;24.34;68.25;100564.34;5074218;28;20067;-82
2021/06/24 02:28:19;;;;;;;0.00;0.00;;;;;;;24.26;69.03;100565.78;5100174;28;20061;-81
2021/06/24 02:30:56;;;;;;;0.00;0.00;;;;;;;24.39;69.53;100564.91;5075031;28;20047;-79
2021/06/24 02:33:23;;;;;;;0.00;0.00;;;;;;;24.39;69.45;100553.19;5105759;28;20126;-79
2021/06/24 02:35:58;;;;;;;0.00;0.00;;;;;;;24.36;70.43;100581.38;5057633;28;20411;-74
2021/06/24 02:38:31;;;;;;;0.00;0.00;;;;;;;24.25;70.70;100578.44;5077255;28;20058;-77
2021/06/24 02:40:58;;;;;;;0.10;0.00;;;;;;;24.27;70.78;100576.53;5080029;28;20044;-75
2021/06/24 02:43:29;;;;;;;0.10;0.00;;;;;;;24.32;70.31;100574.41;5102502;28;20078;-76
2021/06/24 02:45:55;;;;;;;0.00;0.00;;;;;;;24.38;70.10;100589.41;5063523;28;20044;-74
2021/06/24 02:48:29;;;;;;;0.00;0.00;;;;;;;24.38;69.99;100576.72;5057744;28;20044;-76
2021/06/24 02:50:57;;;;;;;0.00;0.00;;;;;;;24.36;69.63;100565.09;5070810;28;20082;-73
2021/06/24 02:53:23;;;;;;;0.00;0.00;;;;;;;24.36;69.95;100584.06;5066661;28;20170;-82
2021/06/24 02:55:53;;;;;;;0.00;0.00;;;;;;;24.40;69.07;100563.94;5068854;28;20557;-76
2021/06/24 02:58:24;;;;;;;0.00;0.00;;;;;;;24.46;68.94;100574.41;5090130;28;20078;-77
2021/06/24 03:00:50;;;;;;;0.00;0.00;;;;;;;24.55;69.29;100581.94;5059302;28;20071;-79
2021/06/24 03:03:27;;;;;;;0.00;0.00;;;;;;;24.54;68.39;100566.66;5081714;28;20047;-78
2021/06/24 03:06:02;;;;;;;0.00;0.00;;;;;;;24.63;68.44;100574.22;5069131;28;20412;-70
2021/06/24 03:08:29;;;;;;;0.20;0.10;;;;;;;24.81;67.92;100573.00;5080880;28;20044;-68
2021/06/24 03:11:01;;;;;;;0.00;0.00;;;;;;;24.83;67.46;100572.91;5097206;28;20044;-68
2021/06/24 03:13:28;;;;;;;0.00;0.00;;;;;;;24.82;67.87;100577.47;5045193;28;20051;-67
2021/06/24 03:15:55;;;;;;;0.45;0.00;;;;;;;24.96;67.70;100577.41;5080657;28;20118;-66
2021/06/24 03:18:21;;;;;;;0.00;0.00;;;;;;;25.10;67.23;100568.38;5095641;28;20127;-66
2021/06/24 03:20:47;;;;;;;0.00;0.00;;;;;;;25.18;67.29;100579.59;5098473;28;20040;-66
2021/06/24 03:23:14;;;;;;;0.00;0.00;;;;;;;25.12;67.12;100583.56;5080824;28;20081;-67
2021/06/24 03:25:44;;;;;;;0.00;0.00;;;;;;;25.09;67.51;100567.50;5092726;28;20146;-64
2021/06/24 03:28:13;;;;;;;0.10;0.00;;;;;;;25.15;67.34;100577.94;5084331;28;20055;-65
2021/06/24 03:31:05;;;;;;;0.00;0.00;;;;;;;25.34;66.93;100575.78;5071830;28;20058;-64
2021/06/24 03:33:36;;;;;;;0.00;0.00;;;;;;;25.06;67.03;100547.84;5063769;28;20041;-65
2021/06/24 03:36:03;;;;;;;0.00;0.00;;;;;;;25.23;67.25;100581.03;5080551;28;20044;-66
2021/06/24 03:38:32;;;;;;;0.00;0.00;;;;;;;25.27;66.84;100570.81;5063495;28;20139;-66
2021/06/24 03:40:58;;;;;;;0.00;0.00;;;;;;;25.33;67.11;100584.03;5095242;28;20575;-65
2021/06/24 03:43:25;;;;;;;0.17;0.03;;;;;;;25.50;67.08;100578.31;5047847;28;20044;-68
2021/06/24 03:45:51;;;;;;;0.03;0.00;;;;;;;25.47;66.94;100579.41;5065044;28;20133;-65
2021/06/24 03:48:18;;;;;;;0.00;0.00;;;;;;;25.68;66.30;100574.34;5072195;28;20128;-72
2021/06/24 03:50:45;;;;;;;0.10;0.00;;;;;;;25.59;66.14;100558.66;5087610;28;20180;-69
2021/06/24 03:53:12;;;;;;;0.00;0.00;;;;;;;25.64;65.89;100572.81;5071513;28;20088;-74
2021/06/24 03:55:40;;;;;;;0.00;0.00;;;;;;;25.75;65.42;100573.81;5092462;28;20054;-73
2021/06/24 03:58:42;;;;;;;0.03;0.00;;;;;;;25.86;65.50;100567.63;5031781;28;20059;-70
2021/06/24 04:01:09;;;;;;;0.00;0.00;;;;;;;25.78;64.86;100554.56;5005839;28;20417;-70
2021/06/24 04:03:37;;;;;;;0.03;0.00;;;;;;;25.99;65.28;100574.00;5025907;28;20051;-75
2021/06/24 04:06:06;;;;;;;0.10;0.00;;;;;;;26.03;65.25;100566.47;5039788;28;20151;-60
2021/06/24 04:08:33;;;;;;;0.00;0.00;;;;;;;26.22;64.67;100567.75;5037103;28;20048;-63
2021/06/24 04:11:00;;;;;;;0.00;0.00;;;;;;;26.25;64.38;100556.66;5024274;28;20041;-63
2021/06/24 04:13:28;;;;;;;0.00;0.00;;;;;;;26.36;64.36;100566.78;5041881;28;20056;-61
2021/06/24 04:15:57;;;;;;;0.00;0.00;;;;;;;26.41;64.17;100565.47;5006397;28;20160;-61
2021/06/24 04:18:23;;;;;;;0.00;0.00;;;;;;;26.50;64.14;100572.09;5038407;28;20581;-62
2021/06/24 04:20:49;;;;;;;0.00;0.00;;;;;;;26.59;64.00;100571.47;5024407;28;20143;-60
2021/06/24 04:23:16;;;;;;;0.30;0.00;;;;;;;26.68;62.88;100566.22;5039722;28;20090;-63
2021/06/24 04:25:48;;;;;;;;;;;;;;;26.77;63.38;100567.41;5016161;28;20115;-62
2021/06/24 04:28:14;;;;;;;0.00;0.00;;;;;;;26.71;63.37;100546.94;5008259;28;19985;-62
2021/06/24 04:30:57;;;;;;;0.10;0.00;;;;;;;26.86;61.67;100564.84;5024122;28;20049;-61
2021/06/24 04:33:28;;;;;;;0.00;0.00;;;;;;;26.93;61.88;100565.28;5084052;28;20047;-62
2021/06/24 04:36:14;;;;;;;0.00;0.00;;;;;;;27.04;62.40;100570.78;5051709;28;20044;-59
2021/06/24 04:38:43;;;;;;;0.00;0.00;;;;;;;27.05;62.14;100550.75;5044580;28;20131;-61
2021/06/24 04:41:11;;;;;;;0.00;0.00;;;;;;;27.24;61.04;100562.00;5055279;28;20053;-62
2021/06/24 04:43:55;;;;;;;0.00;0.00;;;;;;;27.34;60.09;100563.06;5057439;28;20052;-63
2021/06/24 04:46:21;;;;;;;0.00;0.00;;;;;;;27.42;59.14;100558.78;5053814;28;20238;-61
2021/06/24 04:48:48;;;;;;;0.08;0.00;;;;;;;27.55;57.34;100570.47;5056098;28;20151;-61
2021/06/24 04:51:32;;;;;;;0.00;0.00;;;;;;;27.68;55.68;100567.66;5040069;28;20143;-63
2021/06/24 04:53:58;;;;;;;0.00;0.00;;;;;;;27.77;55.41;100562.34;5060341;28;20136;-62
2021/06/24 04:56:29;;;;;;;0.10;0.00;;;;;;;27.75;55.34;100544.38;5041727;28;20147;-62
2021/06/24 04:58:54;;;;;;;0.00;0.00;;;;;;;27.90;56.82;100573.19;5057014;28;20036;-61
2021/06/24 05:01:38;;;;;;;0.10;0.00;;;;;;;27.98;56.53;100571.63;5055787;28;20059;-61
2021/06/24 05:04:23;;;;;;;0.10;0.00;;;;;;;28.06;56.95;100574.59;5056336;28;20148;-62
2021/06/24 05:06:52;;;;;;;0.00;0.00;;;;;;;28.06;57.47;100566.41;5052266;28;20056;-61
2021/06/24 05:09:24;;;;;;;0.03;0.00;;;;;;;28.13;56.65;100566.81;5051744;28;20041;-64
2021/06/24 05:11:50;;;;;;;0.03;0.00;;;;;;;28.20;57.30;100563.44;5052057;28;20549;-61
2021/06/24 05:14:16;;;;;;;0.10;0.00;;;;;;;28.28;57.82;100569.16;5093490;28;20043;-61
2021/06/24 05:16:42;;;;;;;0.00;0.00;;;;;;;28.34;57.36;100576.00;5075083;28;20075;-60
2021/06/24 05:19:09;;;;;;;0.03;0.00;;;;;;;28.28;57.61;100549.22;5093735;28;20487;-62
2021/06/24 05:21:35;;;;;;;0.00;0.00;;;;;;;28.38;57.20;100558.38;5066770;28;20521;-61
2021/06/24 05:24:01;;;;;;;0.10;0.00;;;;;;;28.52;57.29;100571.81;5060593;28;20044;-62
2021/06/24 05:26:28;;;;;;;0.05;0.00;;;;;;;28.62;57.00;100575.53;5064271;28;20507;-60
2021/06/24 05:28:54;;;;;;;0.10;0.00;;;;;;;28.70;56.63;100568.47;5065636;28;20047;-55
2021/06/24 05:31:20;;;;;;;0.00;0.00;;;;;;;28.75;56.34;100560.75;5098457;28;20048;-60
2021/06/24 05:33:46;;;;;;;0.00;0.00;;;;;;;28.86;56.65;100571.66;5081190;28;20039;-55
2021/06/24 05:36:12;;;;;;;0.00;0.00;;;;;;;28.91;55.36;100563.94;5066559;28;20043;-60
2021/06/24 05:38:38;;;;;;;0.00;0.00;;;;;;;28.91;55.25;100550.28;5092880;28;20343;-64
2021/06/24 05:41:04;;;;;;;0.00;0.00;;;;;;;29.09;54.48;100556.13;5096419;28;20088;-64
2021/06/24 05:43:30;;;;;;;0.00;0.00;;;;;;;29.17;53.79;100565.41;5078879;28;20048;-66
2021/06/24 05:45:56;;;;;;;0.00;0.00;;;;;;;29.27;54.11;100566.38;5074018;28;20044;-66
2021/06/24 05:48:21;;;;;;;0.00;0.00;;;;;;;29.35;53.42;100565.75;5097715;28;20072;-71
2021/06/24 05:50:47;;;;;;;0.00;0.00;;;;;;;29.37;53.28;100552.78;5099511;28;20036;-71
2021/06/24 05:53:13;;;;;;;0.00;0.00;;;;;;;29.42;53.25;100539.59;5074345;28;20043;-72
2021/06/24 05:55:52;;;;;;;0.20;0.00;;;;;;;29.61;53.00;100561.66;5075930;28;20051;-70
2021/06/24 05:58:23;;;;;;;0.10;0.00;;;;;;;29.59;52.61;100545.38;5063663;28;20052;-74
2021/06/24 06:00:55;;;;;;;0.13;0.10;;;;;;;29.64;51.60;100547.75;5096363;28;20051;-66
2021/06/24 06:03:22;;;;;;;0.20;0.00;;;;;;;29.76;51.97;100554.00;5067650;28;20490;-72
2021/06/24 06:05:49;;;;;;;0.10;0.00;;;;;;;29.85;50.89;100554.06;5068864;28;20047;-73
2021/06/24 06:08:16;;;;;;;0.00;0.00;;;;;;;29.87;51.30;100548.47;5064787;28;20127;-75
2021/06/24 06:10:43;;;;;;;0.00;0.00;;;;;;;29.99;48.44;100544.66;5088373;28;20834;-79
2021/06/24 06:13:10;;;;;;;0.00;0.00;;;;;;;30.10;49.12;100550.91;5053033;28;20094;-77
2021/06/24 06:15:39;;;;;;;0.17;0.00;;;;;;;30.02;48.32;100533.47;5076221;28;20043;-73
2021/06/24 06:18:13;;;;;;;0.10;0.00;;;;;;;30.21;45.74;100556.34;5087924;28;20108;-70
2021/06/24 06:20:42;;;;;;;0.00;0.00;;;;;;;30.29;46.70;100564.75;5098432;28;20040;-74
2021/06/24 06:23:08;;;;;;;0.00;0.00;;;;;;;30.32;45.49;100561.75;5083130;28;20380;-75
2021/06/24 06:25:33;;;;;;;0.00;0.00;;;;;;;30.31;43.48;100542.72;5083166;28;20475;-86
2021/06/24 06:28:00;;;;;;;0.00;0.00;;;;;;;30.46;42.91;100561.41;5062582;28;20044;-73
2021/06/24 06:30:26;;;;;;;0.00;0.00;;;;;;;30.44;41.24;100548.81;5070291;28;20056;-66
2021/06/24 06:32:53;;;;;;;0.00;0.00;;;;;;;30.54;42.63;100553.38;5086175;28;20158;-67
2021/06/24 06:35:22;;;;;;;0.00;0.00;;;;;;;30.58;42.86;100557.56;5070574;28;20146;-79
2021/06/24 06:37:49;;;;;;;0.00;0.00;;;;;;;30.63;42.16;100558.00;5107147;28;20043;-75
2021/06/24 06:40:15;;;;;;;0.00;0.00;;;;;;;30.75;42.51;100556.94;5094552;28;20062;-71
2021/06/24 06:42:41;;;;;;;0.00;0.00;;;;;;;30.86;39.58;100550.47;5096954;28;20048;-73
2021/06/24 06:45:10;;;;;;;0.00;0.00;;;;;;;30.89;38.45;100547.44;5077700;28;20529;-75
2021/06/24 06:47:39;;;;;;;0.63;0.00;;;;;;;30.90;39.46;100544.56;5080081;28;20044;-75
2021/06/24 06:50:06;;;;;;;0.00;0.00;;;;;;;31.05;39.00;100558.72;5079526;28;20071;-74
2021/06/24 06:52:32;;;;;;;0.00;0.00;;;;;;;31.12;38.91;100558.03;5082206;28;20048;-73
2021/06/24 06:54:58;;;;;;;0.00;0.00;;;;;;;31.12;38.27;100541.56;5067810;28;20046;-74
2021/06/24 06:57:23;;;;;;;0.00;0.00;;;;;;;31.21;38.06;100559.06;5097200;28;20092;-71
2021/06/24 06:59:49;;;;;;;0.10;0.00;;;;;;;31.15;38.83;100549.53;5096069;28;20272;-74
2021/06/24 07:02:15;;;;;;;0.00;0.00;;;;;;;31.21;39.38;100551.66;5081682;28;20085;-66
2021/06/24 07:04:41;;;;;;;0.00;0.00;;;;;;;31.21;39.25;100545.34;5100983;28;20062;-75
2021/06/24 07:07:18;;;;;;;0.00;0.00;;;;;;;31.20;38.90;100538.97;5065515;28;20043;-82
2021/06/24 07:09:44;;;;;;;0.00;0.00;;;;;;;31.40;39.32;100537.19;5050466;28;20160;-79
2021/06/24 07:12:10;;;;;;;0.05;0.00;;;;;;;31.51;39.51;100537.88;5105477;28;20543;-74
2021/06/24 07:14:36;;;;;;;0.00;0.00;;;;;;;31.72;39.19;100544.06;5087363;28;20035;-72
2021/06/24 07:17:02;;;;;;;0.00;0.00;;;;;;;31.95;38.45;100553.75;5102139;28;20557;-80
2021/06/24 07:19:28;;;;;;;0.00;0.00;;;;;;;32.01;38.36;100544.94;5100863;28;20556;-71
2021/06/24 07:21:53;;;;;;;0.00;0.00;;;;;;;32.39;38.02;100544.84;5085041;28;20047;-82
2021/06/24 07:24:21;;;;;;;0.00;0.00;;;;;;;32.77;37.22;100552.94;5084083;28;20044;-80
2021/06/24 07:26:47;;;;;;;0.00;0.00;;;;;;;33.08;35.64;100545.25;5081950;28;20183;-79
2021/06/24 07:29:13;;;;;;;0.00;0.00;;;;;;;33.24;35.72;100549.06;5082545;28;20130;-77
2021/06/24 07:31:40;;;;;;;0.00;0.00;;;;;;;33.38;33.11;100547.69;5082312;28;20569;-70
2021/06/24 07:34:07;;;;;;;0.00;0.00;;;;;;;33.68;32.85;100555.53;5095782;28;20086;-72
2021/06/24 07:36:35;;;;;;;0.00;0.00;;;;;;;33.97;31.01;100545.13;5084726;28;20100;-71
2021/06/24 07:39:01;;;;;;;0.05;0.00;;;;;;;33.75;30.74;100547.50;5099450;28;20047;-71
2021/06/24 07:41:27;;;;;;;0.05;0.00;;;;;;;33.72;29.57;100537.66;5092070;28;20065;-71
2021/06/24 07:43:53;;;;;;;0.00;0.00;;;;;;;33.76;30.25;100524.44;5069202;28;20430;-71
2021/06/24 07:46:20;;;;;;;0.00;0.00;;;;;;;34.33;29.17;100541.25;5068858;28;20044;-70
2021/06/24 07:48:48;;;;;;;0.00;0.00;;;;;;;34.53;28.99;100542.75;5100415;28;20096;-68
2021/06/24 07:51:14;;;;;;;0.00;0.00;;;;;;;34.90;29.07;100543.31;5094528;28;20567;-71
2021/06/24 07:53:42;;;;;;;0.00;0.00;;;;;;;34.40;29.68;100539.59;5094855;28;20048;-71
2021/06/24 07:56:12;;;;;;;;;;;;;;;34.69;29.44;100540.09;5081646;28;20491;-68
2021/06/24 07:58:38;;;;;;;0.00;0.00;;;;;;;34.95;29.70;100540.91;5080237;28;19951;-75
2021/06/24 08:01:05;;;;;;;0.00;0.00;;;;;;;35.02;27.70;100541.09;5045728;28;20088;-74
2021/06/24 08:03:35;;;;;;;0.00;0.00;;;;;;;35.03;29.77;100516.13;5096489;28;20507;-71
2021/06/24 08:06:05;;;;;;;0.00;0.00;;;;;;;35.41;28.56;100539.50;5077538;28;20097;-73
2021/06/24 08:08:32;;;;;;;0.00;0.00;;;;;;;35.76;28.39;100534.53;5097104;28;20115;-73
2021/06/24 08:10:58;;;;;;;0.03;0.03;;;;;;;35.60;28.37;100525.38;5079473;28;20134;-71
2021/06/24 08:13:25;;;;;;;0.00;0.00;;;;;;;36.52;26.76;100535.84;5078007;28;20098;-69
2021/06/24 08:15:52;;;;;;;0.00;0.00;;;;;;;36.50;27.44;100539.81;5082576;28;20062;-72
2021/06/24 08:18:19;;;;;;;0.00;0.00;;;;;;;36.75;26.78;100539.59;5096210;28;20079;-69
2021/06/24 08:20:47;;;;;;;0.00;0.00;;;;;;;37.29;25.80;100523.94;5060409;28;20507;-70
2021/06/24 08:23:15;;;;;;;0.10;0.10;;;;;;;39.20;23.84;100536.94;5062154;28;20051;-71
2021/06/24 08:25:41;;;;;;;0.10;0.10;;;;;;;38.63;24.15;100535.09;5061218;28;20126;-69
2021/06/24 08:28:07;;;;;;;0.00;0.00;;;;;;;37.49;25.00;100536.25;5076443;28;20126;-67
2021/06/24 08:30:36;;;;;;;0.10;0.10;;;;;;;38.23;24.67;100538.25;5094860;28;20138;-69
2021/06/24 08:33:02;;;;;;;0.10;0.10;;;;;;;38.10;24.70;100547.22;5077492;28;20036;-70
2021/06/24 08:35:28;;;;;;;0.10;0.10;;;;;;;38.28;24.03;100544.94;5097803;28;20040;-71
2021/06/24 08:37:54;;;;;;;0.10;0.10;;;;;;;38.99;22.92;100533.25;5063539;28;20527;-68
2021/06/24 08:40:20;;;;;;;0.10;0.10;;;;;;;39.84;21.64;100541.53;5093899;28;20437;-70
2021/06/24 08:42:46;;;;;;;0.10;0.10;;;;;;;39.85;21.24;100548.78;5080481;28;20046;-69
2021/06/24 08:45:13;;;;;;;0.10;0.10;;;;;;;40.06;21.06;100548.75;5075088;28;20054;-72
2021/06/24 08:47:48;;;;;;;0.10;0.10;;;;;;;41.97;19.67;100552.34;5092359;28;20138;-70
2021/06/24 08:50:15;;;;;;;0.10;0.10;;;;;;;42.61;18.96;100553.38;5082461;28;20096;-71
2021/06/24 08:52:50;;;;;;;0.10;0.10;;;;;;;42.78;18.55;100549.06;5095466;28;20112;-74
2021/06/24 08:55:18;;;;;;;0.10;0.10;;;;;;;43.00;18.27;100558.88;5095296;28;20142;-73
2021/06/24 08:57:45;;;;;;;0.10;0.10;;;;;;;44.25;17.34;100569.19;5058781;28;20052;-75
2021/06/24 09:00:11;;;;;;;0.10;0.10;;;;;;;44.40;16.81;100564.06;5061244;28;20047;-77
2021/06/24 09:06:48;;;;;;;0.10;0.10;;;;;;;44.82;16.79;100563.22;5089126;28;20123;-71
2021/06/24 09:09:26;;;;;;;0.10;0.10;;;;;;;44.51;16.85;100560.50;5080299;28;20749;-70
2021/06/24 09:12:09;;;;;;;0.10;0.10;;;;;;;44.16;16.83;100550.91;5060709;28;20404;-73
2021/06/24 09:14:38;;;;;;;0.10;0.10;;;;;;;45.28;16.21;100571.91;5103232;28;20481;-71
2021/06/24 09:17:05;;;;;;;0.15;0.15;;;;;;;46.02;15.49;100551.88;5083096;28;20189;-72
2021/06/24 09:19:31;;;;;;;0.10;0.10;;;;;;;44.66;16.63;100555.44;5069185;28;20500;-74
2021/06/24 09:22:02;;;;;;;0.10;0.10;;;;;;;43.39;17.96;100550.34;5084307;28;20122;-72
2021/06/24 09:24:34;;;;;;;0.20;0.20;;;;;;;44.11;17.24;100542.34;5102326;28;20075;-70
2021/06/24 09:27:25;;;;;;;0.10;0.10;;;;;;;43.71;17.25;100538.13;5103190;28;20574;-74
2021/06/24 09:29:52;;;;;;;0.20;0.20;;;;;;;44.33;17.24;100549.28;5093454;28;20164;-76
2021/06/24 09:32:34;;;;;;;0.03;0.03;;;;;;;44.21;17.32;100544.66;5084442;28;20047;-70
2021/06/24 09:35:02;;;;;;;0.17;0.17;;;;;;;43.85;17.91;100541.72;5103655;28;20527;-70
2021/06/24 09:38:00;;;;;;;0.20;0.20;;;;;;;43.67;18.05;100539.66;5077239;28;20103;-71
2021/06/24 09:40:49;;;;;;;0.20;0.20;;;;;;;44.90;16.37;100537.69;5095643;28;20152;-72
2021/06/24 09:43:27;;;;;;;0.20;0.20;;;;;;;46.01;15.60;100542.63;5093617;28;20069;-72
2021/06/24 09:46:19;;;;;;;0.10;0.10;;;;;;;44.22;16.91;100538.84;5080781;28;20086;-70
2021/06/24 09:48:53;;;;;;;0.20;0.20;;;;;;;43.17;18.17;100538.66;5062872;28;20036;-73
2021/06/24 09:51:22;;;;;;;0.20;0.20;;;;;;;44.35;16.84;100533.13;5061817;28;20055;-66
2021/06/24 09:54:05;;;;;;;0.10;0.10;;;;;;;45.37;16.23;100536.94;5077866;28;20157;-66
2021/06/24 09:56:33;;;;;;;0.10;0.10;;;;;;;46.23;14.58;100537.31;5069459;28;20046;-67
2021/06/24 09:59:09;;;;;;;0.20;0.20;;;;;;;43.51;17.31;100517.84;5078143;28;20461;-65
2021/06/24 10:01:37;;;;;;;0.20;0.20;;;;;;;42.40;18.82;100514.59;5057175;28;20047;-66
2021/06/24 10:04:28;;;;;;;0.15;0.15;;;;;;;43.36;17.49;100511.66;5091195;28;20058;-67
2021/06/24 10:06:57;;;;;;;0.10;0.10;;;;;;;41.97;18.89;100513.31;5069198;28;20044;-66
2021/06/24 10:09:24;;;;;;;0.10;0.10;;;;;;;40.82;19.50;100499.69;5060631;28;20466;-64
2021/06/24 10:11:58;;;;;;;0.10;0.10;;;;;;;41.28;19.73;100509.94;5075027;28;20159;-65
2021/06/24 10:14:28;;;;;;;0.10;0.10;;;;;;;42.20;18.48;100514.56;5077214;28;20044;-66
2021/06/24 10:17:01;;;;;;;0.20;0.20;;;;;;;41.72;19.72;100517.78;5077045;28;20047;-64
2021/06/24 10:19:40;;;;;;;0.20;0.20;;;;;;;41.75;19.59;100511.78;5042205;28;20039;-68
2021/06/24 10:22:24;;;;;;;0.17;0.17;;;;;;;42.63;18.48;100518.63;5077298;28;20044;-65
2021/06/24 10:24:56;;;;;;;0.10;0.10;;;;;;;41.72;19.45;100518.63;5097839;28;20588;-70
2021/06/24 10:27:30;;;;;;;0.10;0.10;;;;;;;41.81;19.06;100506.22;5061414;28;20043;-65
2021/06/24 10:30:17;;;;;;;0.10;0.10;;;;;;;41.24;19.21;100517.00;5075823;28;20052;-65
2021/06/24 10:33:11;;;;;;;0.10;0.10;;;;;;;41.10;19.63;100520.81;5093749;28;20040;-63
2021/06/24 10:35:51;;;;;;;0.10;0.10;;;;;;;41.74;19.03;100516.50;5051957;28;20048;-62
2021/06/24 10:38:19;;;;;;;0.10;0.10;;;;;;;41.81;19.06;100514.56;5093137;28;20048;-62
2021/06/24 10:40:54;;;;;;;0.10;0.10;;;;;;;41.74;18.56;100515.63;5094523;28;20432;-59
2021/06/24 10:43:22;;;;;;;0.10;0.10;;;;;;;43.51;17.06;100507.50;5037369;28;20044;-61
2021/06/24 10:45:48;;;;;;;0.00;0.00;;;;;;;42.99;17.55;100513.31;5095540;28;20040;-60
2021/06/24 10:48:26;;;;;;;0.00;0.00;;;;;;;42.31;18.49;100510.31;5100185;28;20109;-59
2021/06/24 10:51:13;;;;;;;0.00;0.00;;;;;;;42.22;18.48;100501.28;5109541;28;20100;-58
2021/06/24 10:53:51;;;;;;;0.10;0.10;;;;;;;41.98;18.63;100512.22;5080868;28;20067;-61
2021/06/24 10:56:20;;;;;;;0.00;0.00;;;;;;;43.90;17.38;100508.34;5071039;28;20063;-62
2021/06/24 10:58:46;;;;;;;0.00;0.00;;;;;;;41.77;19.09;100490.13;5065474;28;20059;-63
2021/06/24 11:01:12;;;;;;;0.00;0.00;;;;;;;42.64;18.21;100506.41;5073339;28;20460;-65
2021/06/24 11:03:41;;;;;;;0.00;0.00;;;;;;;42.10;18.54;100497.44;5059500;28;20048;-63
2021/06/24 11:06:20;;;;;;;0.00;0.00;;;;;;;40.63;19.90;100497.66;5066063;28;20054;-64
2021/06/24 11:08:47;;;;;;;0.00;0.00;;;;;;;39.62;21.88;100483.34;5080978;28;20067;-69
2021/06/24 11:11:17;;;;;;;0.00;0.00;;;;;;;39.93;21.57;100493.06;5062937;28;20051;-62
2021/06/24 11:13:46;;;;;;;0.00;0.00;;;;;;;39.71;21.21;100494.13;5081717;28;20504;-63
2021/06/24 11:16:19;;;;;;;0.00;0.00;;;;;;;39.40;21.40;100481.66;5064371;28;20411;-66
2021/06/24 11:18:45;;;;;;;0.00;0.00;;;;;;;40.99;20.25;100479.63;5064703;28;20384;-63
2021/06/24 11:21:13;;;;;;;0.00;0.00;;;;;;;39.75;21.82;100475.16;5099649;28;20062;-63
2021/06/24 11:23:49;;;;;;;0.00;0.00;;;;;;;40.79;20.71;100470.34;5047294;28;20036;-64
2021/06/24 11:26:28;;;;;;;0.00;0.00;;;;;;;40.43;21.25;100464.16;5094757;28;20036;-61
2021/06/24 11:29:02;;;;;;;0.00;0.00;;;;;;;39.88;22.08;100465.03;5093981;28;20048;-58
2021/06/24 11:31:55;;;;;;;0.00;0.00;;;;;;;40.44;21.43;100460.28;5052940;28;20939;-61
2021/06/24 11:34:55;;;;;;;0.00;0.00;;;;;;;40.38;21.31;100466.69;5062050;28;20387;-71
2021/06/24 11:37:27;;;;;;;0.00;0.00;;;;;;;40.32;21.61;100464.72;5078564;28;20067;-69
2021/06/24 11:40:06;;;;;;;0.00;0.00;;;;;;;39.13;22.64;100455.50;5079839;28;20457;-66
2021/06/24 11:42:42;;;;;;;0.00;0.00;;;;;;;39.17;22.47;100458.72;5078070;28;20036;-68
2021/06/24 11:45:10;;;;;;;0.00;0.00;;;;;;;40.22;21.92;100466.16;5072678;28;20063;-69